createdAt,value
2023-05-14T00:01:14.306Z,9.68
2023-05-14T00:11:16.453Z,11.13
2023-05-14T00:21:18.504Z,11.57
2023-05-14T00:31:20.857Z,12.73
2023-05-14T00:41:23.467Z,10.43
2023-05-14T00:51:25.778Z,9.50
2023-05-14T01:01:28.862Z,11.47
2023-05-14T01:11:43.469Z,9.60
2023-05-14T01:21:45.862Z,9.30
2023-05-14T01:31:49.971Z,9.30
2023-05-14T01:41:52.673Z,9.63
2023-05-14T01:51:54.956Z,9.20
2023-05-14T02:01:57.132Z,10.30
2023-05-14T02:11:59.215Z,10.70
2023-05-14T02:22:01.389Z,14.23
2023-05-14T02:32:03.632Z,10.55
2023-05-14T02:42:06.950Z,11.23
2023-05-14T02:52:09.039Z,9.63
2023-05-14T03:02:11.402Z,10.47
2023-05-14T03:12:14.412Z,10.57
2023-05-14T03:22:16.799Z,10.48
2023-05-14T03:32:19.272Z,9.40
2023-05-14T03:42:21.631Z,9.80
2023-05-14T03:52:23.777Z,9.50
2023-05-14T04:02:26.021Z,8.77
2023-05-14T04:12:28.212Z,9.17
2023-05-14T04:22:30.331Z,8.97
2023-05-14T04:32:32.519Z,9.17
2023-05-14T04:42:34.530Z,9.90
2023-05-14T04:52:36.568Z,8.63
2023-05-14T05:02:38.622Z,9.30
2023-05-14T05:12:41.232Z,11.00
2023-05-14T05:22:43.278Z,9.90
2023-05-14T05:32:45.489Z,11.00
2023-05-14T05:42:47.505Z,9.70
2023-05-14T05:52:49.556Z,9.80
2023-05-14T06:02:51.655Z,10.70
2023-05-14T06:12:53.791Z,11.52
2023-05-14T06:22:55.834Z,16.97
2023-05-14T06:32:58.262Z,13.10
2023-05-14T06:43:00.410Z,12.50
2023-05-14T06:53:02.624Z,10.77
2023-05-14T07:03:04.673Z,9.60
2023-05-14T07:13:06.705Z,8.55
2023-05-14T07:23:09.001Z,9.93
2023-05-14T07:33:11.107Z,5.05
2023-05-14T07:43:14.513Z,6.28
2023-05-14T07:53:16.738Z,4.10
2023-05-14T08:03:18.898Z,4.68
2023-05-14T08:13:21.057Z,2.97
2023-05-14T08:23:23.349Z,3.20
2023-05-14T08:33:26.092Z,2.42
2023-05-14T08:43:55.957Z,3.25
2023-05-14T08:53:59.128Z,2.35
2023-05-14T09:04:06.946Z,1.90
2023-05-14T09:14:09.967Z,1.73
2023-05-14T09:24:22.553Z,1.60
2023-05-14T09:34:25.718Z,1.55
2023-05-14T09:44:27.785Z,1.00
2023-05-14T09:54:30.333Z,1.42
2023-05-14T10:04:33.384Z,0.80
2023-05-14T10:14:39.150Z,2.67
2023-05-14T10:24:41.492Z,1.35
2023-05-14T10:34:44.114Z,0.82
2023-05-14T10:44:49.243Z,1.63
2023-05-14T10:54:55.864Z,1.50
2023-05-14T11:05:00.316Z,1.48
2023-05-14T11:15:06.578Z,1.50
2023-05-14T11:25:09.480Z,1.85
2023-05-14T11:35:11.784Z,2.22
2023-05-14T11:45:14.508Z,1.48
2023-05-14T11:55:17.364Z,1.70
2023-05-14T12:05:20.673Z,2.53
2023-05-14T12:15:23.514Z,1.40
2023-05-14T12:25:25.671Z,1.02
2023-05-14T12:35:32.023Z,1.42
2023-05-14T12:45:34.270Z,1.00
2023-05-14T12:55:36.386Z,2.72
2023-05-14T13:05:38.525Z,3.63
2023-05-14T13:15:40.634Z,3.72
2023-05-14T13:25:42.696Z,1.00
2023-05-14T13:35:44.980Z,0.90
2023-05-14T13:45:47.842Z,2.38
2023-05-14T13:55:50.641Z,1.70
2023-05-14T14:05:52.803Z,1.00
2023-05-14T14:15:55.156Z,1.63
2023-05-14T14:25:57.681Z,0.63
2023-05-14T14:35:59.923Z,0.98
2023-05-14T14:46:02.823Z,0.90
2023-05-14T14:56:05.263Z,0.98
2023-05-14T15:06:07.421Z,1.52
2023-05-14T15:16:09.594Z,1.13
2023-05-14T15:26:12.092Z,0.82
2023-05-14T15:36:14.184Z,0.82
2023-05-14T15:46:16.316Z,1.17
2023-05-14T15:56:18.453Z,1.00
2023-05-14T16:06:20.699Z,2.05
2023-05-14T16:16:23.105Z,1.65
2023-05-14T16:26:26.330Z,1.35
2023-05-14T16:36:28.562Z,1.42
2023-05-14T16:46:31.160Z,1.50
2023-05-14T16:56:33.421Z,1.52
2023-05-14T17:06:36.169Z,2.38
2023-05-14T17:16:40.451Z,0.75
2023-05-14T17:26:42.563Z,1.00
2023-05-14T17:36:44.675Z,1.98
2023-05-14T17:46:47.707Z,2.35
2023-05-14T17:56:52.922Z,2.22
2023-05-14T18:06:55.172Z,1.10
2023-05-14T18:16:57.399Z,1.80
2023-05-14T18:26:59.818Z,2.92
2023-05-14T18:37:02.931Z,1.55
2023-05-14T18:47:05.682Z,2.17
2023-05-14T18:57:08.191Z,3.97
2023-05-14T19:07:10.277Z,5.03
2023-05-14T19:17:12.357Z,2.42
2023-05-14T19:27:16.493Z,3.45
2023-05-14T19:37:18.924Z,2.05
2023-05-14T19:47:21.002Z,3.00
2023-05-14T19:57:23.048Z,3.45
2023-05-14T20:07:25.855Z,2.75
2023-05-14T20:17:28.657Z,4.93
2023-05-14T20:27:30.996Z,3.15
2023-05-14T20:37:33.895Z,3.08
2023-05-14T20:47:36.472Z,4.60
2023-05-14T20:57:39.704Z,5.65
2023-05-14T21:07:41.863Z,3.75
2023-05-14T21:17:44.047Z,3.47
2023-05-14T21:27:46.224Z,6.22
2023-05-14T21:37:48.354Z,4.65
2023-05-14T21:47:50.565Z,5.13
2023-05-14T21:57:52.924Z,5.15
2023-05-14T22:07:54.958Z,5.07
2023-05-14T22:17:57.204Z,6.68
2023-05-14T22:27:59.407Z,7.05
2023-05-14T22:38:01.462Z,6.07
2023-05-14T22:48:03.671Z,4.13
2023-05-14T22:58:05.897Z,4.50
2023-05-14T23:08:08.061Z,4.65
2023-05-14T23:18:10.406Z,3.30
2023-05-14T23:28:12.738Z,4.78
2023-05-14T23:38:14.864Z,4.00
2023-05-14T23:48:17.052Z,7.47
2023-05-14T23:58:19.218Z,5.18
